createdAt,value
2019-01-25T13:41:43.483Z,49.53
2019-01-25T13:44:14.150Z,62.83
2019-01-25T13:46:45.518Z,47.98
2019-01-25T13:49:15.960Z,48.50
2019-01-25T13:51:46.230Z,47.62
2019-01-25T13:54:17.476Z,47.40
2019-01-25T13:56:47.809Z,49.10
2019-01-25T13:59:19.301Z,48.35
2019-01-25T14:01:49.508Z,49.55
2019-01-25T14:04:19.591Z,46.95
2019-01-25T14:06:49.930Z,46.95
2019-01-25T14:09:20.340Z,47.80
2019-01-25T14:11:50.676Z,46.92
2019-01-25T14:14:21.308Z,45.67
2019-01-25T14:16:52.861Z,45.98
2019-01-25T14:19:22.981Z,46.23
2019-01-25T14:21:54.944Z,46.25
2019-01-25T14:24:24.858Z,45.48
2019-01-25T14:26:55.516Z,44.18
2019-01-25T14:29:29.297Z,45.33
2019-01-25T14:31:58.441Z,45.17
2019-01-25T14:34:28.431Z,45.05
2019-01-25T14:36:58.731Z,46.65
2019-01-25T14:39:28.646Z,44.67
2019-01-25T14:41:58.870Z,45.95
2019-01-25T14:44:29.094Z,46.20
2019-01-25T14:46:59.524Z,44.58
2019-01-25T14:49:29.536Z,45.78
2019-01-25T14:51:59.581Z,47.00
2019-01-25T14:54:29.569Z,46.10
2019-01-25T14:56:59.791Z,47.85
2019-01-25T14:59:29.812Z,48.40
2019-01-25T15:02:00.154Z,46.68
2019-01-25T15:04:30.150Z,47.75
2019-01-25T15:07:00.420Z,48.25
2019-01-25T15:09:30.518Z,48.17
2019-01-25T15:12:00.641Z,47.53
2019-01-25T15:14:30.630Z,47.48
2019-01-25T15:17:01.055Z,46.23
2019-01-25T15:19:31.072Z,46.95
2019-01-25T15:22:01.415Z,45.17
2019-01-25T15:24:31.412Z,45.73
2019-01-25T15:27:01.736Z,45.40
2019-01-25T15:29:31.878Z,45.45
2019-01-25T15:32:02.079Z,45.25
2019-01-25T15:34:32.198Z,43.65
2019-01-25T15:37:02.624Z,42.40
2019-01-25T15:39:34.075Z,43.60
2019-01-25T15:42:04.501Z,44.15
2019-01-25T15:44:34.516Z,45.05
2019-01-25T15:47:04.739Z,45.40
2019-01-25T15:49:34.858Z,43.58
2019-01-25T15:52:05.726Z,44.53
2019-01-25T15:54:36.735Z,45.75
2019-01-25T15:57:06.958Z,43.52
2019-01-25T15:59:37.079Z,46.37
2019-01-25T16:02:07.711Z,42.80
2019-01-25T16:04:37.727Z,44.98
2019-01-25T16:07:07.848Z,54.90
2019-01-25T16:09:40.857Z,84.92
2019-01-25T16:12:11.003Z,47.48
2019-01-25T16:14:41.176Z,46.30
2019-01-25T16:17:11.294Z,46.68
2019-01-25T16:19:41.500Z,46.65
2019-01-25T16:22:11.587Z,45.58
2019-01-25T16:24:41.887Z,44.23
2019-01-25T16:27:12.180Z,44.13
2019-01-25T16:29:42.081Z,46.15
2019-01-25T16:32:12.214Z,45.12
2019-01-25T16:34:42.472Z,46.35
2019-01-25T16:37:13.604Z,45.90
2019-01-25T16:39:43.599Z,43.85
2019-01-25T16:42:13.848Z,43.17
2019-01-25T16:44:43.836Z,45.73
2019-01-25T16:47:14.160Z,46.23
2019-01-25T16:49:45.614Z,47.25
2019-01-25T16:52:15.939Z,47.65
2019-01-25T16:54:45.952Z,46.77
2019-01-25T16:57:16.482Z,44.98
2019-01-25T16:59:46.497Z,47.13
2019-01-25T17:02:16.822Z,47.15
2019-01-25T17:04:47.556Z,47.60
2019-01-25T17:07:17.880Z,49.18
2019-01-25T17:09:47.896Z,48.78
2019-01-25T17:12:18.242Z,49.40
2019-01-25T17:14:48.670Z,51.37
2019-01-25T17:17:18.972Z,50.12
2019-01-25T17:19:49.296Z,49.20
2019-01-25T17:22:19.518Z,48.63
2019-01-25T17:24:49.638Z,76.15
2019-01-25T17:27:19.962Z,85.67
2019-01-25T17:29:49.916Z,55.30
2019-01-25T17:32:20.099Z,48.68
2019-01-25T17:34:50.116Z,49.42
2019-01-25T17:37:20.442Z,48.75
2019-01-25T17:39:50.990Z,48.63
2019-01-25T17:42:21.109Z,48.60
2019-01-25T17:44:51.313Z,47.80
2019-01-25T17:47:21.634Z,47.58
2019-01-25T17:49:51.796Z,47.88
2019-01-25T17:52:21.975Z,43.68
2019-01-25T17:54:53.017Z,45.67
2019-01-25T17:57:24.673Z,43.78
2019-01-25T17:59:54.792Z,44.85
2019-01-25T18:02:26.447Z,72.60
2019-01-25T18:04:56.595Z,61.48
2019-01-25T18:07:26.849Z,84.22
2019-01-25T18:09:58.240Z,82.05
2019-01-25T18:12:28.564Z,47.70
2019-01-25T18:14:58.683Z,44.58
2019-01-25T18:17:30.443Z,42.58
2019-01-25T18:20:00.487Z,42.98
2019-01-25T18:22:30.548Z,43.33
2019-01-25T18:25:00.799Z,43.33
2019-01-25T18:27:31.124Z,42.10
2019-01-25T18:30:01.403Z,45.63
2019-01-25T18:32:31.996Z,43.23
2019-01-25T18:35:02.207Z,44.40
2019-01-25T18:37:32.854Z,44.48
2019-01-25T18:40:02.847Z,41.50
2019-01-25T18:42:33.174Z,43.70
2019-01-25T18:45:05.266Z,42.25
2019-01-25T18:47:36.162Z,46.00
2019-01-25T18:50:09.266Z,43.20
2019-01-25T18:52:39.715Z,43.40
2019-01-25T18:55:15.957Z,44.27
2019-01-25T18:57:46.278Z,43.05
2019-01-25T19:00:18.356Z,42.08
2019-01-25T19:02:49.025Z,45.33
2019-01-25T19:05:20.324Z,43.78
2019-01-25T19:07:50.554Z,43.60
2019-01-25T19:10:28.577Z,44.33
2019-01-25T19:12:58.771Z,45.03
2019-01-25T19:15:30.620Z,43.05
2019-01-25T19:18:00.776Z,44.45
2019-01-25T19:20:30.872Z,45.98
2019-01-25T19:23:01.401Z,44.05
2019-01-25T19:25:34.079Z,74.85
2019-01-25T19:28:04.506Z,68.60
2019-01-25T19:30:43.124Z,45.33
2019-01-25T19:33:13.562Z,43.63
2019-01-25T19:35:43.671Z,59.77
2019-01-25T19:38:14.557Z,51.50
2019-01-25T19:40:44.627Z,45.28
2019-01-25T19:43:14.877Z,42.55
2019-01-25T19:45:45.173Z,42.58
2019-01-25T19:48:15.442Z,40.60
2019-01-25T19:50:45.518Z,42.35
2019-01-25T19:53:16.052Z,42.17
2019-01-25T19:55:47.599Z,41.73
2019-01-25T19:58:17.922Z,41.37
2019-01-25T20:00:47.945Z,39.58
2019-01-25T20:03:18.161Z,41.02
2019-01-25T20:05:48.222Z,40.17
2019-01-25T20:08:18.503Z,39.98
2019-01-25T20:10:48.832Z,38.60
2019-01-25T20:13:19.077Z,34.15
2019-01-25T20:15:49.167Z,30.68
2019-01-25T20:18:19.799Z,27.10
2019-01-25T20:20:50.022Z,25.12
2019-01-25T20:23:20.288Z,23.45
2019-01-25T20:25:50.669Z,24.12
2019-01-25T20:28:20.910Z,24.67
2019-01-25T20:30:50.852Z,24.37
2019-01-25T20:33:20.954Z,29.87
2019-01-25T20:35:50.968Z,24.50
2019-01-25T20:38:21.266Z,22.25
2019-01-25T20:40:51.338Z,23.02
2019-01-25T20:43:21.404Z,24.37
2019-01-25T20:45:51.828Z,23.87
2019-01-25T20:48:22.050Z,23.73
2019-01-25T20:50:52.170Z,23.05
2019-01-25T20:53:22.626Z,22.45
2019-01-25T20:55:53.702Z,21.52
2019-01-25T20:58:23.963Z,21.77
2019-01-25T21:00:54.339Z,21.60
2019-01-25T21:03:24.611Z,21.10
2019-01-25T21:05:54.730Z,21.35
2019-01-25T21:08:26.183Z,20.85
2019-01-25T21:10:56.402Z,20.00
2019-01-25T21:13:26.624Z,19.25
2019-01-25T21:15:57.840Z,19.50
2019-01-25T21:18:28.220Z,18.85
2019-01-25T21:20:59.236Z,19.00
2019-01-25T21:23:29.563Z,20.80
2019-01-25T21:25:59.781Z,19.75
2019-01-25T21:28:30.078Z,19.52
2019-01-25T21:31:00.165Z,19.07
2019-01-25T21:33:31.780Z,19.70
2019-01-25T21:36:03.435Z,20.25
2019-01-25T21:38:33.760Z,20.40
2019-01-25T21:41:03.881Z,20.72
2019-01-25T21:43:34.100Z,21.77
2019-01-25T21:46:04.219Z,23.40
2019-01-25T21:48:34.544Z,22.32
2019-01-25T21:51:06.208Z,23.57
2019-01-25T21:53:36.523Z,22.05
2019-01-25T21:56:06.973Z,24.35
2019-01-25T21:58:36.974Z,24.00
2019-01-25T22:01:07.193Z,22.80
2019-01-25T22:03:37.349Z,23.22
2019-01-25T22:06:07.566Z,24.18
2019-01-25T22:08:37.469Z,24.05
2019-01-25T22:11:07.489Z,23.87
2019-01-25T22:13:39.290Z,25.32
2019-01-25T22:16:09.398Z,23.70
2019-01-25T22:18:39.565Z,27.55
2019-01-25T22:21:10.021Z,21.68
2019-01-25T22:23:40.350Z,21.00
2019-01-25T22:26:10.741Z,19.27
2019-01-25T22:28:40.962Z,18.42
2019-01-25T22:31:10.982Z,18.57
2019-01-25T22:33:42.841Z,17.77
2019-01-25T22:36:13.986Z,18.48
2019-01-25T22:38:44.429Z,17.30
2019-01-25T22:41:14.430Z,16.30
2019-01-25T22:43:44.648Z,15.60
2019-01-25T22:46:14.789Z,14.63
2019-01-25T22:48:45.000Z,15.72
2019-01-25T22:51:15.110Z,15.10
2019-01-25T22:53:45.333Z,15.35
2019-01-25T22:56:15.453Z,15.48
2019-01-25T22:58:45.781Z,13.00
2019-01-25T23:01:19.274Z,13.08
2019-01-25T23:04:10.424Z,13.43
2019-01-25T23:06:43.274Z,12.93
2019-01-25T23:09:25.306Z,12.45
2019-01-25T23:11:55.286Z,11.70
2019-01-25T23:14:25.714Z,12.15
2019-01-25T23:16:55.934Z,11.40
2019-01-25T23:19:26.308Z,12.28
2019-01-25T23:21:56.088Z,12.30
2019-01-25T23:24:26.726Z,10.82
2019-01-25T23:26:58.129Z,12.10
2019-01-25T23:29:28.184Z,12.73
2019-01-25T23:31:58.288Z,12.68
2019-01-25T23:34:28.557Z,13.32
2019-01-25T23:36:58.753Z,13.48
2019-01-25T23:39:29.055Z,12.50
2019-01-25T23:41:59.070Z,12.15
2019-01-25T23:44:29.293Z,10.95
2019-01-25T23:46:59.444Z,10.70
2019-01-25T23:49:33.115Z,10.35
2019-01-25T23:52:03.544Z,10.88
2019-01-25T23:54:33.868Z,12.13
2019-01-25T23:57:23.339Z,12.40
2019-01-25T23:59:53.663Z,11.83
